<?xml version='1.0' encoding='UTF-8'?><gpx version="1.1" creator="JPX - https://github.com/jenetics/jpx" xmlns="http://www.topografix.com/GPX/1/1"><trk><trkseg><trkpt lat="45.3059193" lon="8.3357397"><ele>137.0</ele><time>2026-04-06T09:51:32.375Z</time></trkpt><trkpt lat="45.3058644" lon="8.3359011"><ele>137.0</ele><time>2026-04-06T09:51:33.387Z</time></trkpt><trkpt lat="45.3058075" lon="8.336063"><ele>137.0</ele><time>2026-04-06T09:51:34.375Z</time></trkpt><trkpt lat="45.3057587" lon="8.3362304"><ele>137.0</ele><time>2026-04-06T09:51:35.37Z</time></trkpt><trkpt lat="45.3057152" lon="8.3364046"><ele>135.0</ele><time>2026-04-06T09:51:36.365Z</time></trkpt><trkpt lat="45.3056764" lon="8.3365798"><ele>135.0</ele><time>2026-04-06T09:51:37.369Z</time></trkpt></trkseg><trkseg><trkpt lat="45.3036835" lon="8.3460101"><ele>135.0</ele><time>2026-04-06T09:52:34.364Z</time></trkpt><trkpt lat="45.3036089" lon="8.3462027"><ele>135.0</ele><time>2026-04-06T09:52:35.366Z</time></trkpt><trkpt lat="45.3035439" lon="8.3463839"><ele>135.0</ele><time>2026-04-06T09:52:36.37Z</time></trkpt><trkpt lat="45.3034756" lon="8.3465581"><ele>135.0</ele><time>2026-04-06T09:52:37.366Z</time></trkpt><trkpt lat="45.3033903" lon="8.3467174"><ele>135.0</ele><time>2026-04-06T09:52:38.362Z</time></trkpt><trkpt lat="45.3032955" lon="8.3468542"><ele>135.0</ele><time>2026-04-06T09:52:39.365Z</time></trkpt><trkpt lat="45.3031871" lon="8.3469711"><ele>135.0</ele><time>2026-04-06T09:52:40.361Z</time></trkpt><trkpt lat="45.3030783" lon="8.347066"><ele>135.0</ele><time>2026-04-06T09:52:41.365Z</time></trkpt><trkpt lat="45.3029601" lon="8.3471394"><ele>134.75</ele><time>2026-04-06T09:52:42.367Z</time></trkpt><trkpt lat="45.3028371" lon="8.3472131"><ele>134.5</ele><time>2026-04-06T09:52:43.371Z</time></trkpt><trkpt lat="45.3027172" lon="8.3472906"><ele>134.25</ele><time>2026-04-06T09:52:44.362Z</time></trkpt><trkpt lat="45.3026107" lon="8.3473841"><ele>134.0</ele><time>2026-04-06T09:52:45.363Z</time></trkpt><trkpt lat="45.3025179" lon="8.3474906"><ele>134.0</ele><time>2026-04-06T09:52:46.374Z</time></trkpt><trkpt lat="45.3024371" lon="8.3476045"><ele>134.0</ele><time>2026-04-06T09:52:47.372Z</time></trkpt><trkpt lat="45.3023609" lon="8.3477126"><ele>134.0</ele><time>2026-04-06T09:52:48.367Z</time></trkpt><trkpt lat="45.302291" lon="8.3478333"><ele>134.0</ele><time>2026-04-06T09:52:49.367Z</time></trkpt><trkpt lat="45.3022254" lon="8.3479627"><ele>134.0</ele><time>2026-04-06T09:52:50.365Z</time></trkpt><trkpt lat="45.3021622" lon="8.3481068"><ele>134.25</ele><time>2026-04-06T09:52:51.37Z</time></trkpt><trkpt lat="45.302106" lon="8.3482734"><ele>134.5</ele><time>2026-04-06T09:52:52.366Z</time></trkpt><trkpt lat="45.3020547" lon="8.3484557"><ele>134.75</ele><time>2026-04-06T09:52:53.367Z</time></trkpt><trkpt lat="45.3019965" lon="8.3486477"><ele>135.0</ele><time>2026-04-06T09:52:54.37Z</time></trkpt><trkpt lat="45.301947" lon="8.3488506"><ele>135.33333333333334</ele><time>2026-04-06T09:52:55.374Z</time></trkpt><trkpt lat="45.3018929" lon="8.3490655"><ele>135.66666666666669</ele><time>2026-04-06T09:52:56.365Z</time></trkpt><trkpt lat="45.3018443" lon="8.3492866"><ele>136.0</ele><time>2026-04-06T09:52:57.367Z</time></trkpt><trkpt lat="45.301798" lon="8.3495344"><ele>135.0</ele><time>2026-04-06T09:52:58.367Z</time></trkpt><trkpt lat="45.3017397" lon="8.3497919"><ele>134.0</ele><time>2026-04-06T09:52:59.368Z</time></trkpt><trkpt lat="45.301681" lon="8.350055"><ele>133.0</ele><time>2026-04-06T09:53:00.365Z</time></trkpt><trkpt lat="45.3016181" lon="8.3503275"><ele>133.33333333333334</ele><time>2026-04-06T09:53:01.389Z</time></trkpt><trkpt lat="45.3015494" lon="8.3505875"><ele>133.66666666666666</ele><time>2026-04-06T09:53:02.368Z</time></trkpt><trkpt lat="45.3014823" lon="8.3508374"><ele>134.0</ele><time>2026-04-06T09:53:03.372Z</time></trkpt><trkpt lat="45.3014202" lon="8.3510821"><ele>134.0</ele><time>2026-04-06T09:53:04.368Z</time></trkpt><trkpt lat="45.3013694" lon="8.3513334"><ele>134.0</ele><time>2026-04-06T09:53:05.368Z</time></trkpt><trkpt lat="45.3013327" lon="8.3515808"><ele>134.0</ele><time>2026-04-06T09:53:06.371Z</time></trkpt><trkpt lat="45.3012995" lon="8.3518135"><ele>134.0</ele><time>2026-04-06T09:53:07.375Z</time></trkpt><trkpt lat="45.3012676" lon="8.3520305"><ele>134.0</ele><time>2026-04-06T09:53:08.366Z</time></trkpt><trkpt lat="45.3012221" lon="8.3522268"><ele>134.0</ele><time>2026-04-06T09:53:09.371Z</time></trkpt><trkpt lat="45.3011623" lon="8.3524101"><ele>134.0</ele><time>2026-04-06T09:53:10.362Z</time></trkpt><trkpt lat="45.3010816" lon="8.352577"><ele>134.0</ele><time>2026-04-06T09:53:11.369Z</time></trkpt><trkpt lat="45.300978" lon="8.3527316"><ele>134.0</ele><time>2026-04-06T09:53:12.373Z</time></trkpt><trkpt lat="45.3008549" lon="8.352861"><ele>134.0</ele><time>2026-04-06T09:53:13.373Z</time></trkpt><trkpt lat="45.300723" lon="8.3529627"><ele>134.33333333333331</ele><time>2026-04-06T09:53:14.367Z</time></trkpt><trkpt lat="45.300574" lon="8.3530323"><ele>134.66666666666666</ele><time>2026-04-06T09:53:15.369Z</time></trkpt><trkpt lat="45.3004157" lon="8.353075"><ele>135.0</ele><time>2026-04-06T09:53:16.366Z</time></trkpt><trkpt lat="45.3002481" lon="8.353091"><ele>135.0</ele><time>2026-04-06T09:53:17.371Z</time></trkpt><trkpt lat="45.300065" lon="8.3531149"><ele>135.0</ele><time>2026-04-06T09:53:18.361Z</time></trkpt><trkpt lat="45.2998677" lon="8.353132"><ele>135.0</ele><time>2026-04-06T09:53:19.37Z</time></trkpt><trkpt lat="45.2996618" lon="8.3531475"><ele>136.33333333333334</ele><time>2026-04-06T09:53:20.368Z</time></trkpt><trkpt lat="45.2994585" lon="8.3531719"><ele>137.66666666666669</ele><time>2026-04-06T09:53:21.368Z</time></trkpt><trkpt lat="45.2992643" lon="8.3531972"><ele>139.0</ele><time>2026-04-06T09:53:22.376Z</time></trkpt><trkpt lat="45.2990709" lon="8.3532192"><ele>138.33333333333334</ele><time>2026-04-06T09:53:23.369Z</time></trkpt><trkpt lat="45.2988832" lon="8.3532395"><ele>137.66666666666666</ele><time>2026-04-06T09:53:24.379Z</time></trkpt><trkpt lat="45.2986991" lon="8.3532586"><ele>137.0</ele><time>2026-04-06T09:53:25.364Z</time></trkpt><trkpt lat="45.298519" lon="8.3532798"><ele>137.0</ele><time>2026-04-06T09:53:26.363Z</time></trkpt><trkpt lat="45.2983364" lon="8.3533029"><ele>137.0</ele><time>2026-04-06T09:53:27.363Z</time></trkpt><trkpt lat="45.2981509" lon="8.3533245"><ele>137.0</ele><time>2026-04-06T09:53:28.365Z</time></trkpt><trkpt lat="45.2979639" lon="8.3533509"><ele>136.0</ele><time>2026-04-06T09:53:29.366Z</time></trkpt><trkpt lat="45.297776" lon="8.3533835"><ele>135.0</ele><time>2026-04-06T09:53:30.363Z</time></trkpt><trkpt lat="45.2975828" lon="8.3534309"><ele>134.0</ele><time>2026-04-06T09:53:31.369Z</time></trkpt><trkpt lat="45.2973861" lon="8.3534964"><ele>133.66666666666666</ele><time>2026-04-06T09:53:32.367Z</time></trkpt><trkpt lat="45.2971865" lon="8.3535786"><ele>133.33333333333334</ele><time>2026-04-06T09:53:33.365Z</time></trkpt><trkpt lat="45.2969935" lon="8.3536731"><ele>133.0</ele><time>2026-04-06T09:53:34.374Z</time></trkpt><trkpt lat="45.296798" lon="8.3537681"><ele>133.0</ele><time>2026-04-06T09:53:35.367Z</time></trkpt><trkpt lat="45.2966029" lon="8.3538706"><ele>133.0</ele><time>2026-04-06T09:53:36.366Z</time></trkpt><trkpt lat="45.2964076" lon="8.3539655"><ele>133.0</ele><time>2026-04-06T09:53:37.37Z</time></trkpt><trkpt lat="45.2962217" lon="8.354064"><ele>133.66666666666669</ele><time>2026-04-06T09:53:38.364Z</time></trkpt><trkpt lat="45.2960539" lon="8.3541505"><ele>134.33333333333334</ele><time>2026-04-06T09:53:39.375Z</time></trkpt><trkpt lat="45.2959042" lon="8.3542161"><ele>135.0</ele><time>2026-04-06T09:53:40.372Z</time></trkpt><trkpt lat="45.2957722" lon="8.3542568"><ele>135.0</ele><time>2026-04-06T09:53:41.37Z</time></trkpt><trkpt lat="45.2956398" lon="8.3542591"><ele>135.0</ele><time>2026-04-06T09:53:42.369Z</time></trkpt><trkpt lat="45.2954976" lon="8.3542407"><ele>135.0</ele><time>2026-04-06T09:53:43.366Z</time></trkpt><trkpt lat="45.2953483" lon="8.354183"><ele>135.0</ele><time>2026-04-06T09:53:44.367Z</time></trkpt><trkpt lat="45.2951841" lon="8.3540963"><ele>134.66666666666666</ele><time>2026-04-06T09:53:45.365Z</time></trkpt><trkpt lat="45.2950091" lon="8.3539983"><ele>134.33333333333331</ele><time>2026-04-06T09:53:46.373Z</time></trkpt><trkpt lat="45.2948119" lon="8.353895"><ele>134.0</ele><time>2026-04-06T09:53:47.368Z</time></trkpt><trkpt lat="45.2946008" lon="8.3537865"><ele>134.0</ele><time>2026-04-06T09:53:48.368Z</time></trkpt><trkpt lat="45.2943825" lon="8.3536864"><ele>134.0</ele><time>2026-04-06T09:53:49.369Z</time></trkpt><trkpt lat="45.2941758" lon="8.3535855"><ele>134.0</ele><time>2026-04-06T09:53:50.37Z</time></trkpt><trkpt lat="45.2939843" lon="8.3534848"><ele>134.33333333333331</ele><time>2026-04-06T09:53:51.367Z</time></trkpt><trkpt lat="45.2938112" lon="8.3533974"><ele>134.66666666666666</ele><time>2026-04-06T09:53:52.369Z</time></trkpt><trkpt lat="45.2936625" lon="8.3533193"><ele>135.0</ele><time>2026-04-06T09:53:53.369Z</time></trkpt><trkpt lat="45.2935304" lon="8.3532532"><ele>135.0</ele><time>2026-04-06T09:53:54.369Z</time></trkpt><trkpt lat="45.2934158" lon="8.35319"><ele>135.0</ele><time>2026-04-06T09:53:55.367Z</time></trkpt><trkpt lat="45.2933209" lon="8.3531408"><ele>135.0</ele><time>2026-04-06T09:53:56.369Z</time></trkpt><trkpt lat="45.2932418" lon="8.3530997"><ele>135.0</ele><time>2026-04-06T09:53:57.368Z</time></trkpt><trkpt lat="45.2931724" lon="8.353064"><ele>135.0</ele><time>2026-04-06T09:53:58.366Z</time></trkpt><trkpt lat="45.2930918" lon="8.353026"><ele>135.0</ele><time>2026-04-06T09:54:00.369Z</time></trkpt><trkpt lat="45.2930349" lon="8.3530799"><ele>135.0</ele><time>2026-04-06T09:54:03.369Z</time></trkpt><trkpt lat="45.2930495" lon="8.3532212"><ele>135.0</ele><time>2026-04-06T09:54:05.37Z</time></trkpt><trkpt lat="45.2930916" lon="8.3533242"><ele>135.0</ele><time>2026-04-06T09:54:06.369Z</time></trkpt><trkpt lat="45.2931536" lon="8.353438"><ele>135.0</ele><time>2026-04-06T09:54:07.375Z</time></trkpt><trkpt lat="45.2932302" lon="8.3535754"><ele>135.0</ele><time>2026-04-06T09:54:08.364Z</time></trkpt><trkpt lat="45.2933114" lon="8.3537576"><ele>135.0</ele><time>2026-04-06T09:54:09.365Z</time></trkpt><trkpt lat="45.2933996" lon="8.3539621"><ele>135.0</ele><time>2026-04-06T09:54:10.37Z</time></trkpt><trkpt lat="45.2934964" lon="8.354181"><ele>134.66666666666666</ele><time>2026-04-06T09:54:11.372Z</time></trkpt><trkpt lat="45.2936156" lon="8.3544312"><ele>134.33333333333331</ele><time>2026-04-06T09:54:12.369Z</time></trkpt><trkpt lat="45.2937379" lon="8.3546861"><ele>134.0</ele><time>2026-04-06T09:54:13.37Z</time></trkpt><trkpt lat="45.2938603" lon="8.3549627"><ele>134.0</ele><time>2026-04-06T09:54:14.365Z</time></trkpt><trkpt lat="45.2939809" lon="8.3552543"><ele>134.0</ele><time>2026-04-06T09:54:15.366Z</time></trkpt><trkpt lat="45.2941064" lon="8.3555595"><ele>134.0</ele><time>2026-04-06T09:54:16.363Z</time></trkpt><trkpt lat="45.2942413" lon="8.355874"><ele>134.0</ele><time>2026-04-06T09:54:17.378Z</time></trkpt><trkpt lat="45.2943853" lon="8.3561913"><ele>134.0</ele><time>2026-04-06T09:54:18.365Z</time></trkpt><trkpt lat="45.294532" lon="8.3565209"><ele>134.0</ele><time>2026-04-06T09:54:19.373Z</time></trkpt><trkpt lat="45.294685" lon="8.3568552"><ele>134.0</ele><time>2026-04-06T09:54:20.367Z</time></trkpt><trkpt lat="45.2948344" lon="8.3571905"><ele>134.0</ele><time>2026-04-06T09:54:21.366Z</time></trkpt><trkpt lat="45.2949801" lon="8.3575205"><ele>134.0</ele><time>2026-04-06T09:54:22.37Z</time></trkpt><trkpt lat="45.295128" lon="8.3578435"><ele>134.0</ele><time>2026-04-06T09:54:23.374Z</time></trkpt><trkpt lat="45.2952687" lon="8.358163"><ele>134.0</ele><time>2026-04-06T09:54:24.369Z</time></trkpt><trkpt lat="45.2954091" lon="8.3584706"><ele>134.0</ele><time>2026-04-06T09:54:25.373Z</time></trkpt><trkpt lat="45.2955419" lon="8.3587639"><ele>134.0</ele><time>2026-04-06T09:54:26.37Z</time></trkpt><trkpt lat="45.2956655" lon="8.3590508"><ele>134.0</ele><time>2026-04-06T09:54:27.371Z</time></trkpt><trkpt lat="45.295784" lon="8.3593378"><ele>134.0</ele><time>2026-04-06T09:54:28.367Z</time></trkpt><trkpt lat="45.2959034" lon="8.359627"><ele>134.0</ele><time>2026-04-06T09:54:29.368Z</time></trkpt><trkpt lat="45.2960122" lon="8.359924"><ele>132.5</ele><time>2026-04-06T09:54:30.366Z</time></trkpt><trkpt lat="45.2961032" lon="8.3602325"><ele>131.0</ele><time>2026-04-06T09:54:31.374Z</time></trkpt><trkpt lat="45.2961794" lon="8.3605475"><ele>131.0</ele><time>2026-04-06T09:54:32.369Z</time></trkpt><trkpt lat="45.2962454" lon="8.3608779"><ele>131.0</ele><time>2026-04-06T09:54:33.374Z</time></trkpt><trkpt lat="45.2963027" lon="8.3612132"><ele>132.0</ele><time>2026-04-06T09:54:34.366Z</time></trkpt><trkpt lat="45.2963557" lon="8.3615489"><ele>133.0</ele><time>2026-04-06T09:54:35.366Z</time></trkpt><trkpt lat="45.2964019" lon="8.3618967"><ele>133.0</ele><time>2026-04-06T09:54:36.361Z</time></trkpt><trkpt lat="45.2964493" lon="8.3622547"><ele>133.0</ele><time>2026-04-06T09:54:37.374Z</time></trkpt><trkpt lat="45.2964994" lon="8.3626126"><ele>133.0</ele><time>2026-04-06T09:54:38.368Z</time></trkpt><trkpt lat="45.2965592" lon="8.3629737"><ele>133.0</ele><time>2026-04-06T09:54:39.37Z</time></trkpt><trkpt lat="45.2966225" lon="8.3633304"><ele>133.0</ele><time>2026-04-06T09:54:40.371Z</time></trkpt><trkpt lat="45.2966975" lon="8.3636827"><ele>133.0</ele><time>2026-04-06T09:54:41.376Z</time></trkpt><trkpt lat="45.2967837" lon="8.36402"><ele>133.5</ele><time>2026-04-06T09:54:42.371Z</time></trkpt><trkpt lat="45.2968779" lon="8.3643493"><ele>134.0</ele><time>2026-04-06T09:54:43.368Z</time></trkpt><trkpt lat="45.2969863" lon="8.3646698"><ele>133.5</ele><time>2026-04-06T09:54:44.368Z</time></trkpt><trkpt lat="45.2971024" lon="8.3649815"><ele>133.0</ele><time>2026-04-06T09:54:45.367Z</time></trkpt><trkpt lat="45.2972221" lon="8.3652883"><ele>133.5</ele><time>2026-04-06T09:54:46.37Z</time></trkpt><trkpt lat="45.2973474" lon="8.3655888"><ele>134.0</ele><time>2026-04-06T09:54:47.368Z</time></trkpt><trkpt lat="45.2974675" lon="8.3658933"><ele>134.0</ele><time>2026-04-06T09:54:48.373Z</time></trkpt><trkpt lat="45.2975865" lon="8.3661939"><ele>134.0</ele><time>2026-04-06T09:54:49.369Z</time></trkpt><trkpt lat="45.2976989" lon="8.3664961"><ele>134.0</ele><time>2026-04-06T09:54:50.372Z</time></trkpt><trkpt lat="45.2978125" lon="8.366804"><ele>134.0</ele><time>2026-04-06T09:54:51.366Z</time></trkpt><trkpt lat="45.2979192" lon="8.3671253"><ele>133.0</ele><time>2026-04-06T09:54:52.368Z</time></trkpt><trkpt lat="45.2980121" lon="8.3674525"><ele>132.0</ele><time>2026-04-06T09:54:53.369Z</time></trkpt><trkpt lat="45.2980941" lon="8.3677894"><ele>131.5</ele><time>2026-04-06T09:54:54.364Z</time></trkpt><trkpt lat="45.2981647" lon="8.3681399"><ele>131.0</ele><time>2026-04-06T09:54:55.376Z</time></trkpt><trkpt lat="45.2982251" lon="8.3684904"><ele>131.0</ele><time>2026-04-06T09:54:56.375Z</time></trkpt><trkpt lat="45.2982817" lon="8.3688446"><ele>131.0</ele><time>2026-04-06T09:54:57.367Z</time></trkpt><trkpt lat="45.2983386" lon="8.3692024"><ele>131.0</ele><time>2026-04-06T09:54:58.369Z</time></trkpt><trkpt lat="45.2984" lon="8.3695559"><ele>131.0</ele><time>2026-04-06T09:54:59.367Z</time></trkpt><trkpt lat="45.2984616" lon="8.3699095"><ele>131.0</ele><time>2026-04-06T09:55:00.37Z</time></trkpt><trkpt lat="45.2985213" lon="8.3702624"><ele>131.0</ele><time>2026-04-06T09:55:01.364Z</time></trkpt><trkpt lat="45.2985807" lon="8.3706149"><ele>130.5</ele><time>2026-04-06T09:55:02.365Z</time></trkpt><trkpt lat="45.2986427" lon="8.3709686"><ele>130.0</ele><time>2026-04-06T09:55:03.369Z</time></trkpt><trkpt lat="45.2987092" lon="8.3713251"><ele>130.5</ele><time>2026-04-06T09:55:04.37Z</time></trkpt><trkpt lat="45.298778" lon="8.3716961"><ele>131.0</ele><time>2026-04-06T09:55:05.366Z</time></trkpt><trkpt lat="45.2988476" lon="8.3720721"><ele>131.0</ele><time>2026-04-06T09:55:06.369Z</time></trkpt><trkpt lat="45.2989164" lon="8.3724564"><ele>131.0</ele><time>2026-04-06T09:55:07.37Z</time></trkpt><trkpt lat="45.2989835" lon="8.3728367"><ele>131.0</ele><time>2026-04-06T09:55:08.364Z</time></trkpt><trkpt lat="45.2990494" lon="8.3732111"><ele>131.0</ele><time>2026-04-06T09:55:09.368Z</time></trkpt><trkpt lat="45.2991105" lon="8.3735677"><ele>131.0</ele><time>2026-04-06T09:55:10.371Z</time></trkpt><trkpt lat="45.2991671" lon="8.3739081"><ele>131.0</ele><time>2026-04-06T09:55:11.368Z</time></trkpt><trkpt lat="45.2992191" lon="8.3742416"><ele>131.0</ele><time>2026-04-06T09:55:12.364Z</time></trkpt><trkpt lat="45.2992523" lon="8.3745793"><ele>131.0</ele><time>2026-04-06T09:55:13.366Z</time></trkpt><trkpt lat="45.2992675" lon="8.3749249"><ele>130.5</ele><time>2026-04-06T09:55:14.371Z</time></trkpt><trkpt lat="45.2992644" lon="8.3752741"><ele>130.0</ele><time>2026-04-06T09:55:15.372Z</time></trkpt><trkpt lat="45.2992427" lon="8.3756172"><ele>130.0</ele><time>2026-04-06T09:55:16.365Z</time></trkpt><trkpt lat="45.299208" lon="8.3759675"><ele>130.0</ele><time>2026-04-06T09:55:17.37Z</time></trkpt><trkpt lat="45.2991756" lon="8.3763199"><ele>130.0</ele><time>2026-04-06T09:55:18.372Z</time></trkpt><trkpt lat="45.2991438" lon="8.3766757"><ele>130.0</ele><time>2026-04-06T09:55:19.367Z</time></trkpt><trkpt lat="45.2991125" lon="8.3770351"><ele>130.0</ele><time>2026-04-06T09:55:20.361Z</time></trkpt><trkpt lat="45.2990816" lon="8.3773942"><ele>130.0</ele><time>2026-04-06T09:55:21.365Z</time></trkpt><trkpt lat="45.299047" lon="8.377754"><ele>130.5</ele><time>2026-04-06T09:55:22.367Z</time></trkpt><trkpt lat="45.2990114" lon="8.3781127"><ele>131.0</ele><time>2026-04-06T09:55:23.371Z</time></trkpt><trkpt lat="45.2989792" lon="8.378471"><ele>131.0</ele><time>2026-04-06T09:55:24.369Z</time></trkpt><trkpt lat="45.2989486" lon="8.378831"><ele>131.0</ele><time>2026-04-06T09:55:25.366Z</time></trkpt><trkpt lat="45.2989147" lon="8.3791903"><ele>130.5</ele><time>2026-04-06T09:55:26.37Z</time></trkpt><trkpt lat="45.2988815" lon="8.3795498"><ele>130.0</ele><time>2026-04-06T09:55:27.372Z</time></trkpt><trkpt lat="45.2988484" lon="8.3799071"><ele>130.0</ele><time>2026-04-06T09:55:28.37Z</time></trkpt><trkpt lat="45.2988153" lon="8.3802623"><ele>130.0</ele><time>2026-04-06T09:55:29.373Z</time></trkpt><trkpt lat="45.2987836" lon="8.3806204"><ele>130.5</ele><time>2026-04-06T09:55:30.372Z</time></trkpt><trkpt lat="45.2987543" lon="8.3809769"><ele>131.0</ele><time>2026-04-06T09:55:31.365Z</time></trkpt><trkpt lat="45.2987249" lon="8.3813285"><ele>130.5</ele><time>2026-04-06T09:55:32.367Z</time></trkpt><trkpt lat="45.2986957" lon="8.381663"><ele>130.0</ele><time>2026-04-06T09:55:33.371Z</time></trkpt><trkpt lat="45.2986646" lon="8.3819773"><ele>129.66666666666669</ele><time>2026-04-06T09:55:34.368Z</time></trkpt><trkpt lat="45.2986284" lon="8.3822864"><ele>129.33333333333334</ele><time>2026-04-06T09:55:35.379Z</time></trkpt><trkpt lat="45.2985859" lon="8.3825783"><ele>129.0</ele><time>2026-04-06T09:55:36.367Z</time></trkpt><trkpt lat="45.298536" lon="8.3828528"><ele>130.0</ele><time>2026-04-06T09:55:37.369Z</time></trkpt><trkpt lat="45.2984855" lon="8.3831157"><ele>131.0</ele><time>2026-04-06T09:55:38.367Z</time></trkpt><trkpt lat="45.2984394" lon="8.3833828"><ele>132.0</ele><time>2026-04-06T09:55:39.377Z</time></trkpt><trkpt lat="45.2984066" lon="8.383653"><ele>133.66666666666666</ele><time>2026-04-06T09:55:40.37Z</time></trkpt><trkpt lat="45.2983846" lon="8.3839293"><ele>135.33333333333331</ele><time>2026-04-06T09:55:41.37Z</time></trkpt><trkpt lat="45.2983665" lon="8.384203"><ele>137.0</ele><time>2026-04-06T09:55:42.365Z</time></trkpt><trkpt lat="45.2983509" lon="8.3844586"><ele>136.33333333333331</ele><time>2026-04-06T09:55:43.368Z</time></trkpt><trkpt lat="45.2983396" lon="8.3847025"><ele>135.66666666666666</ele><time>2026-04-06T09:55:44.366Z</time></trkpt><trkpt lat="45.2983266" lon="8.3849439"><ele>135.0</ele><time>2026-04-06T09:55:45.363Z</time></trkpt><trkpt lat="45.2983178" lon="8.3851844"><ele>135.0</ele><time>2026-04-06T09:55:46.369Z</time></trkpt><trkpt lat="45.2983076" lon="8.3854232"><ele>135.0</ele><time>2026-04-06T09:55:47.363Z</time></trkpt><trkpt lat="45.2982949" lon="8.38566"><ele>135.0</ele><time>2026-04-06T09:55:48.363Z</time></trkpt><trkpt lat="45.2982803" lon="8.3858973"><ele>134.0</ele><time>2026-04-06T09:55:49.371Z</time></trkpt><trkpt lat="45.2982627" lon="8.3861282"><ele>133.0</ele><time>2026-04-06T09:55:50.372Z</time></trkpt><trkpt lat="45.2982456" lon="8.3863549"><ele>132.0</ele><time>2026-04-06T09:55:51.37Z</time></trkpt><trkpt lat="45.2982272" lon="8.3865791"><ele>132.0</ele><time>2026-04-06T09:55:52.366Z</time></trkpt><trkpt lat="45.2982096" lon="8.3867906"><ele>132.0</ele><time>2026-04-06T09:55:53.369Z</time></trkpt><trkpt lat="45.298194" lon="8.3869845"><ele>132.0</ele><time>2026-04-06T09:55:54.368Z</time></trkpt><trkpt lat="45.2981792" lon="8.3871674"><ele>132.0</ele><time>2026-04-06T09:55:55.366Z</time></trkpt><trkpt lat="45.298158" lon="8.3873359"><ele>131.5</ele><time>2026-04-06T09:55:56.369Z</time></trkpt><trkpt lat="45.2981277" lon="8.3874979"><ele>131.0</ele><time>2026-04-06T09:55:57.373Z</time></trkpt><trkpt lat="45.2980873" lon="8.3876622"><ele>130.5</ele><time>2026-04-06T09:55:58.367Z</time></trkpt><trkpt lat="45.2980397" lon="8.3878218"><ele>130.0</ele><time>2026-04-06T09:55:59.375Z</time></trkpt><trkpt lat="45.2979825" lon="8.3879682"><ele>129.8</ele><time>2026-04-06T09:56:00.37Z</time></trkpt><trkpt lat="45.2979169" lon="8.388096"><ele>129.6</ele><time>2026-04-06T09:56:01.368Z</time></trkpt><trkpt lat="45.2978474" lon="8.3882046"><ele>129.4</ele><time>2026-04-06T09:56:02.37Z</time></trkpt><trkpt lat="45.2977799" lon="8.3882934"><ele>129.2</ele><time>2026-04-06T09:56:03.368Z</time></trkpt><trkpt lat="45.2977138" lon="8.3883669"><ele>129.0</ele><time>2026-04-06T09:56:04.367Z</time></trkpt><trkpt lat="45.2976509" lon="8.3884277"><ele>129.0</ele><time>2026-04-06T09:56:05.37Z</time></trkpt><trkpt lat="45.2975958" lon="8.3884834"><ele>129.0</ele><time>2026-04-06T09:56:06.371Z</time></trkpt><trkpt lat="45.2975018" lon="8.3885513"><ele>129.0</ele><time>2026-04-06T09:56:08.368Z</time></trkpt><trkpt lat="45.2974344" lon="8.3885694"><ele>129.0</ele><time>2026-04-06T09:56:10.371Z</time></trkpt><trkpt lat="45.2973579" lon="8.3885437"><ele>129.0</ele><time>2026-04-06T09:56:13.368Z</time></trkpt><trkpt lat="45.2972787" lon="8.3884988"><ele>129.0</ele><time>2026-04-06T09:56:15.369Z</time></trkpt><trkpt lat="45.2972062" lon="8.3884575"><ele>129.2</ele><time>2026-04-06T09:56:16.366Z</time></trkpt><trkpt lat="45.2971295" lon="8.3884178"><ele>129.4</ele><time>2026-04-06T09:56:17.363Z</time></trkpt><trkpt lat="45.2970432" lon="8.3884231"><ele>129.6</ele><time>2026-04-06T09:56:18.366Z</time></trkpt><trkpt lat="45.2969587" lon="8.388495"><ele>129.8</ele><time>2026-04-06T09:56:19.371Z</time></trkpt><trkpt lat="45.2968956" lon="8.3886104"><ele>130.0</ele><time>2026-04-06T09:56:20.366Z</time></trkpt><trkpt lat="45.2968703" lon="8.3887503"><ele>130.0</ele><time>2026-04-06T09:56:21.37Z</time></trkpt><trkpt lat="45.2968904" lon="8.3888829"><ele>130.0</ele><time>2026-04-06T09:56:22.368Z</time></trkpt><trkpt lat="45.2969465" lon="8.3889886"><ele>130.0</ele><time>2026-04-06T09:56:23.369Z</time></trkpt><trkpt lat="45.2970356" lon="8.3890649"><ele>130.0</ele><time>2026-04-06T09:56:24.374Z</time></trkpt><trkpt lat="45.2971349" lon="8.389106"><ele>130.0</ele><time>2026-04-06T09:56:25.366Z</time></trkpt><trkpt lat="45.2972439" lon="8.3891116"><ele>129.75</ele><time>2026-04-06T09:56:26.37Z</time></trkpt><trkpt lat="45.297365" lon="8.3891188"><ele>129.5</ele><time>2026-04-06T09:56:27.368Z</time></trkpt><trkpt lat="45.297482" lon="8.3891801"><ele>129.25</ele><time>2026-04-06T09:56:28.368Z</time></trkpt><trkpt lat="45.2976" lon="8.3892778"><ele>129.0</ele><time>2026-04-06T09:56:29.37Z</time></trkpt><trkpt lat="45.2977144" lon="8.3894049"><ele>129.0</ele><time>2026-04-06T09:56:30.37Z</time></trkpt><trkpt lat="45.2978436" lon="8.3895595"><ele>129.0</ele><time>2026-04-06T09:56:31.369Z</time></trkpt><trkpt lat="45.2980075" lon="8.3897438"><ele>129.0</ele><time>2026-04-06T09:56:32.37Z</time></trkpt><trkpt lat="45.2981914" lon="8.3899573"><ele>129.0</ele><time>2026-04-06T09:56:33.368Z</time></trkpt><trkpt lat="45.2983677" lon="8.3901614"><ele>129.0</ele><time>2026-04-06T09:56:34.368Z</time></trkpt><trkpt lat="45.2985346" lon="8.3903401"><ele>129.0</ele><time>2026-04-06T09:56:35.366Z</time></trkpt><trkpt lat="45.2986865" lon="8.3905135"><ele>129.0</ele><time>2026-04-06T09:56:36.369Z</time></trkpt><trkpt lat="45.2988328" lon="8.3906766"><ele>129.0</ele><time>2026-04-06T09:56:37.375Z</time></trkpt><trkpt lat="45.2989744" lon="8.3908316"><ele>129.0</ele><time>2026-04-06T09:56:38.369Z</time></trkpt><trkpt lat="45.2991137" lon="8.3909877"><ele>128.0</ele><time>2026-04-06T09:56:39.37Z</time></trkpt><trkpt lat="45.2992598" lon="8.3911529"><ele>127.0</ele><time>2026-04-06T09:56:40.373Z</time></trkpt><trkpt lat="45.2994103" lon="8.3913241"><ele>126.0</ele><time>2026-04-06T09:56:41.367Z</time></trkpt><trkpt lat="45.2995611" lon="8.3914906"><ele>126.0</ele><time>2026-04-06T09:56:42.374Z</time></trkpt><trkpt lat="45.2997105" lon="8.3916595"><ele>126.0</ele><time>2026-04-06T09:56:43.37Z</time></trkpt><trkpt lat="45.2998566" lon="8.391826"><ele>126.0</ele><time>2026-04-06T09:56:44.368Z</time></trkpt><trkpt lat="45.3000019" lon="8.3919856"><ele>126.33333333333334</ele><time>2026-04-06T09:56:45.372Z</time></trkpt><trkpt lat="45.3001472" lon="8.3921428"><ele>126.66666666666667</ele><time>2026-04-06T09:56:46.367Z</time></trkpt><trkpt lat="45.3002912" lon="8.3922978"><ele>127.0</ele><time>2026-04-06T09:56:47.367Z</time></trkpt><trkpt lat="45.3004339" lon="8.3924538"><ele>127.0</ele><time>2026-04-06T09:56:48.367Z</time></trkpt><trkpt lat="45.300573" lon="8.3926085"><ele>127.0</ele><time>2026-04-06T09:56:49.377Z</time></trkpt><trkpt lat="45.3007076" lon="8.3927609"><ele>127.0</ele><time>2026-04-06T09:56:50.37Z</time></trkpt><trkpt lat="45.3008406" lon="8.3929089"><ele>127.33333333333334</ele><time>2026-04-06T09:56:51.366Z</time></trkpt><trkpt lat="45.3009708" lon="8.3930523"><ele>127.66666666666666</ele><time>2026-04-06T09:56:52.366Z</time></trkpt><trkpt lat="45.3010946" lon="8.3931927"><ele>128.0</ele><time>2026-04-06T09:56:53.369Z</time></trkpt><trkpt lat="45.3012087" lon="8.3933277"><ele>128.0</ele><time>2026-04-06T09:56:54.367Z</time></trkpt><trkpt lat="45.301316" lon="8.3934554"><ele>128.0</ele><time>2026-04-06T09:56:55.369Z</time></trkpt><trkpt lat="45.3014147" lon="8.393558"><ele>128.0</ele><time>2026-04-06T09:56:56.37Z</time></trkpt><trkpt lat="45.3014999" lon="8.393649"><ele>128.0</ele><time>2026-04-06T09:56:57.375Z</time></trkpt><trkpt lat="45.3015694" lon="8.3937292"><ele>127.99999999999999</ele><time>2026-04-06T09:56:58.363Z</time></trkpt><trkpt lat="45.301621" lon="8.393818"><ele>128.0</ele><time>2026-04-06T09:56:59.372Z</time></trkpt><trkpt lat="45.3016544" lon="8.3939206"><ele>128.0</ele><time>2026-04-06T09:57:00.372Z</time></trkpt><trkpt lat="45.3016703" lon="8.3940433"><ele>128.0</ele><time>2026-04-06T09:57:01.368Z</time></trkpt><trkpt lat="45.3016758" lon="8.3941785"><ele>127.99999999999999</ele><time>2026-04-06T09:57:02.37Z</time></trkpt><trkpt lat="45.3016987" lon="8.3943158"><ele>128.0</ele><time>2026-04-06T09:57:03.378Z</time></trkpt><trkpt lat="45.3017502" lon="8.3944311"><ele>128.0</ele><time>2026-04-06T09:57:04.368Z</time></trkpt><trkpt lat="45.3018293" lon="8.3945221"><ele>128.0</ele><time>2026-04-06T09:57:05.373Z</time></trkpt><trkpt lat="45.3019258" lon="8.3945561"><ele>128.0</ele><time>2026-04-06T09:57:06.364Z</time></trkpt><trkpt lat="45.3020159" lon="8.3945569"><ele>128.0</ele><time>2026-04-06T09:57:07.368Z</time></trkpt><trkpt lat="45.3021102" lon="8.3945431"><ele>128.0</ele><time>2026-04-06T09:57:08.369Z</time></trkpt><trkpt lat="45.3022094" lon="8.3945481"><ele>128.0</ele><time>2026-04-06T09:57:09.372Z</time></trkpt><trkpt lat="45.3023185" lon="8.3945952"><ele>128.0</ele><time>2026-04-06T09:57:10.366Z</time></trkpt><trkpt lat="45.3024401" lon="8.3946881"><ele>128.0</ele><time>2026-04-06T09:57:11.368Z</time></trkpt><trkpt lat="45.3025635" lon="8.3948128"><ele>128.0</ele><time>2026-04-06T09:57:12.369Z</time></trkpt><trkpt lat="45.3026778" lon="8.3949353"><ele>128.0</ele><time>2026-04-06T09:57:13.37Z</time></trkpt><trkpt lat="45.3027879" lon="8.3950546"><ele>128.0</ele><time>2026-04-06T09:57:14.366Z</time></trkpt><trkpt lat="45.3028992" lon="8.395177"><ele>128.0</ele><time>2026-04-06T09:57:15.366Z</time></trkpt><trkpt lat="45.3030116" lon="8.3953021"><ele>128.0</ele><time>2026-04-06T09:57:16.37Z</time></trkpt><trkpt lat="45.3031279" lon="8.3954397"><ele>128.66666666666666</ele><time>2026-04-06T09:57:17.366Z</time></trkpt><trkpt lat="45.3032528" lon="8.395585"><ele>129.33333333333334</ele><time>2026-04-06T09:57:18.364Z</time></trkpt><trkpt lat="45.3033856" lon="8.3957352"><ele>130.0</ele><time>2026-04-06T09:57:19.37Z</time></trkpt><trkpt lat="45.3035188" lon="8.3958876"><ele>130.0</ele><time>2026-04-06T09:57:20.369Z</time></trkpt><trkpt lat="45.3036578" lon="8.3960369"><ele>130.0</ele><time>2026-04-06T09:57:21.373Z</time></trkpt><trkpt lat="45.3038036" lon="8.3962019"><ele>130.0</ele><time>2026-04-06T09:57:22.375Z</time></trkpt><trkpt lat="45.3039575" lon="8.3963679"><ele>130.66666666666669</ele><time>2026-04-06T09:57:23.365Z</time></trkpt><trkpt lat="45.3041268" lon="8.3965427"><ele>131.33333333333334</ele><time>2026-04-06T09:57:24.366Z</time></trkpt><trkpt lat="45.3043116" lon="8.396744"><ele>132.0</ele><time>2026-04-06T09:57:25.369Z</time></trkpt><trkpt lat="45.3045065" lon="8.396955"><ele>131.5</ele><time>2026-04-06T09:57:26.368Z</time></trkpt><trkpt lat="45.304708" lon="8.3971899"><ele>131.0</ele><time>2026-04-06T09:57:27.368Z</time></trkpt><trkpt lat="45.3049075" lon="8.3974301"><ele>130.0</ele><time>2026-04-06T09:57:28.374Z</time></trkpt><trkpt lat="45.3051048" lon="8.3976591"><ele>129.0</ele><time>2026-04-06T09:57:29.364Z</time></trkpt><trkpt lat="45.3052864" lon="8.3978756"><ele>129.0</ele><time>2026-04-06T09:57:30.371Z</time></trkpt><trkpt lat="45.3054675" lon="8.3980773"><ele>129.0</ele><time>2026-04-06T09:57:31.368Z</time></trkpt><trkpt lat="45.3056451" lon="8.3982722"><ele>128.5</ele><time>2026-04-06T09:57:32.368Z</time></trkpt><trkpt lat="45.3058223" lon="8.3984682"><ele>128.0</ele><time>2026-04-06T09:57:33.367Z</time></trkpt><trkpt lat="45.306001" lon="8.398664"><ele>128.33333333333331</ele><time>2026-04-06T09:57:34.367Z</time></trkpt><trkpt lat="45.3061789" lon="8.3988607"><ele>128.66666666666666</ele><time>2026-04-06T09:57:35.367Z</time></trkpt><trkpt lat="45.3063553" lon="8.3990557"><ele>129.0</ele><time>2026-04-06T09:57:36.366Z</time></trkpt><trkpt lat="45.3065349" lon="8.3992473"><ele>129.33333333333334</ele><time>2026-04-06T09:57:37.368Z</time></trkpt><trkpt lat="45.3067115" lon="8.3994418"><ele>129.66666666666669</ele><time>2026-04-06T09:57:38.365Z</time></trkpt><trkpt lat="45.3068876" lon="8.3996386"><ele>130.0</ele><time>2026-04-06T09:57:39.37Z</time></trkpt><trkpt lat="45.3070631" lon="8.3998386"><ele>130.0</ele><time>2026-04-06T09:57:40.369Z</time></trkpt><trkpt lat="45.3072412" lon="8.4000393"><ele>130.0</ele><time>2026-04-06T09:57:41.37Z</time></trkpt><trkpt lat="45.3074217" lon="8.4002359"><ele>129.5</ele><time>2026-04-06T09:57:42.372Z</time></trkpt><trkpt lat="45.3075993" lon="8.400433"><ele>129.0</ele><time>2026-04-06T09:57:43.37Z</time></trkpt><trkpt lat="45.3077751" lon="8.4006325"><ele>129.0</ele><time>2026-04-06T09:57:44.367Z</time></trkpt><trkpt lat="45.3079524" lon="8.4008247"><ele>129.0</ele><time>2026-04-06T09:57:45.368Z</time></trkpt><trkpt lat="45.3081248" lon="8.4010189"><ele>129.0</ele><time>2026-04-06T09:57:46.371Z</time></trkpt><trkpt lat="45.3082955" lon="8.4012084"><ele>128.33333333333334</ele><time>2026-04-06T09:57:47.37Z</time></trkpt><trkpt lat="45.3084661" lon="8.4014023"><ele>127.66666666666667</ele><time>2026-04-06T09:57:48.366Z</time></trkpt><trkpt lat="45.3086388" lon="8.4015929"><ele>127.0</ele><time>2026-04-06T09:57:49.365Z</time></trkpt><trkpt lat="45.3088153" lon="8.4017876"><ele>127.5</ele><time>2026-04-06T09:57:50.367Z</time></trkpt><trkpt lat="45.3089922" lon="8.4019845"><ele>128.0</ele><time>2026-04-06T09:57:51.369Z</time></trkpt><trkpt lat="45.3091731" lon="8.4021837"><ele>128.0</ele><time>2026-04-06T09:57:52.362Z</time></trkpt><trkpt lat="45.3093531" lon="8.4023847"><ele>128.0</ele><time>2026-04-06T09:57:53.365Z</time></trkpt><trkpt lat="45.3095286" lon="8.4025791"><ele>128.0</ele><time>2026-04-06T09:57:54.374Z</time></trkpt><trkpt lat="45.3097009" lon="8.4027651"><ele>128.0</ele><time>2026-04-06T09:57:55.375Z</time></trkpt><trkpt lat="45.3098628" lon="8.402949"><ele>128.0</ele><time>2026-04-06T09:57:56.37Z</time></trkpt><trkpt lat="45.3100267" lon="8.4031298"><ele>128.66666666666666</ele><time>2026-04-06T09:57:57.371Z</time></trkpt><trkpt lat="45.3101873" lon="8.4033076"><ele>129.33333333333334</ele><time>2026-04-06T09:57:58.37Z</time></trkpt><trkpt lat="45.3103457" lon="8.4034825"><ele>130.0</ele><time>2026-04-06T09:57:59.372Z</time></trkpt><trkpt lat="45.310499" lon="8.4036545"><ele>129.66666666666669</ele><time>2026-04-06T09:58:00.363Z</time></trkpt><trkpt lat="45.3106479" lon="8.4038249"><ele>129.33333333333334</ele><time>2026-04-06T09:58:01.365Z</time></trkpt><trkpt lat="45.3107913" lon="8.403996"><ele>129.0</ele><time>2026-04-06T09:58:02.366Z</time></trkpt><trkpt lat="45.3109355" lon="8.4041656"><ele>129.0</ele><time>2026-04-06T09:58:03.371Z</time></trkpt><trkpt lat="45.3110822" lon="8.4043258"><ele>129.0</ele><time>2026-04-06T09:58:04.37Z</time></trkpt><trkpt lat="45.3112277" lon="8.4044888"><ele>129.0</ele><time>2026-04-06T09:58:05.372Z</time></trkpt><trkpt lat="45.3113697" lon="8.4046465"><ele>129.0</ele><time>2026-04-06T09:58:06.37Z</time></trkpt><trkpt lat="45.3115133" lon="8.4048031"><ele>129.0</ele><time>2026-04-06T09:58:07.37Z</time></trkpt><trkpt lat="45.3116543" lon="8.4049644"><ele>129.0</ele><time>2026-04-06T09:58:08.369Z</time></trkpt><trkpt lat="45.3117953" lon="8.4051218"><ele>129.0</ele><time>2026-04-06T09:58:09.374Z</time></trkpt><trkpt lat="45.3119352" lon="8.4052852"><ele>129.0</ele><time>2026-04-06T09:58:10.369Z</time></trkpt><trkpt lat="45.3120774" lon="8.4054448"><ele>129.0</ele><time>2026-04-06T09:58:11.372Z</time></trkpt><trkpt lat="45.3122217" lon="8.4055965"><ele>128.33333333333334</ele><time>2026-04-06T09:58:12.364Z</time></trkpt><trkpt lat="45.312366" lon="8.4057531"><ele>127.66666666666667</ele><time>2026-04-06T09:58:13.367Z</time></trkpt><trkpt lat="45.3125107" lon="8.4059115"><ele>127.0</ele><time>2026-04-06T09:58:14.369Z</time></trkpt><trkpt lat="45.3126537" lon="8.40607"><ele>127.0</ele><time>2026-04-06T09:58:15.368Z</time></trkpt><trkpt lat="45.3127995" lon="8.4062315"><ele>127.0</ele><time>2026-04-06T09:58:16.37Z</time></trkpt><trkpt lat="45.3129425" lon="8.4063936"><ele>127.0</ele><time>2026-04-06T09:58:17.372Z</time></trkpt><trkpt lat="45.3130865" lon="8.4065629"><ele>127.66666666666667</ele><time>2026-04-06T09:58:18.368Z</time></trkpt><trkpt lat="45.3132393" lon="8.4067284"><ele>128.33333333333334</ele><time>2026-04-06T09:58:19.365Z</time></trkpt><trkpt lat="45.3133871" lon="8.4068899"><ele>129.0</ele><time>2026-04-06T09:58:20.363Z</time></trkpt><trkpt lat="45.313527" lon="8.4070404"><ele>129.0</ele><time>2026-04-06T09:58:21.377Z</time></trkpt><trkpt lat="45.3136568" lon="8.4071875"><ele>129.0</ele><time>2026-04-06T09:58:22.367Z</time></trkpt><trkpt lat="45.3137734" lon="8.407322"><ele>129.0</ele><time>2026-04-06T09:58:23.364Z</time></trkpt><trkpt lat="45.313875" lon="8.4074367"><ele>129.0</ele><time>2026-04-06T09:58:24.367Z</time></trkpt><trkpt lat="45.3139513" lon="8.4075535"><ele>129.0</ele><time>2026-04-06T09:58:25.372Z</time></trkpt><trkpt lat="45.314006" lon="8.4076737"><ele>129.0</ele><time>2026-04-06T09:58:26.362Z</time></trkpt><trkpt lat="45.3140503" lon="8.40778"><ele>129.0</ele><time>2026-04-06T09:58:27.373Z</time></trkpt><trkpt lat="45.3140803" lon="8.4078787"><ele>129.0</ele><time>2026-04-06T09:58:28.376Z</time></trkpt><trkpt lat="45.3141047" lon="8.4079715"><ele>129.0</ele><time>2026-04-06T09:58:29.372Z</time></trkpt><trkpt lat="45.3141263" lon="8.4080742"><ele>129.0</ele><time>2026-04-06T09:58:30.366Z</time></trkpt><trkpt lat="45.3141591" lon="8.408176"><ele>129.6</ele><time>2026-04-06T09:58:31.369Z</time></trkpt><trkpt lat="45.314182" lon="8.4082923"><ele>130.2</ele><time>2026-04-06T09:58:32.382Z</time></trkpt><trkpt lat="45.314188" lon="8.4084311"><ele>130.79999999999998</ele><time>2026-04-06T09:58:33.373Z</time></trkpt><trkpt lat="45.3141846" lon="8.4085756"><ele>131.4</ele><time>2026-04-06T09:58:34.367Z</time></trkpt><trkpt lat="45.3141832" lon="8.4087315"><ele>132.0</ele><time>2026-04-06T09:58:35.373Z</time></trkpt><trkpt lat="45.3141842" lon="8.4088931"><ele>132.0</ele><time>2026-04-06T09:58:36.368Z</time></trkpt><trkpt lat="45.3141897" lon="8.40906"><ele>132.0</ele><time>2026-04-06T09:58:37.37Z</time></trkpt><trkpt lat="45.314196" lon="8.4092257"><ele>132.0</ele><time>2026-04-06T09:58:38.371Z</time></trkpt><trkpt lat="45.3142088" lon="8.4093822"><ele>132.0</ele><time>2026-04-06T09:58:39.372Z</time></trkpt><trkpt lat="45.3142192" lon="8.4095358"><ele>131.75</ele><time>2026-04-06T09:58:40.369Z</time></trkpt><trkpt lat="45.3142323" lon="8.4096955"><ele>131.5</ele><time>2026-04-06T09:58:41.367Z</time></trkpt><trkpt lat="45.3142438" lon="8.4098644"><ele>131.25</ele><time>2026-04-06T09:58:42.371Z</time></trkpt><trkpt lat="45.3142565" lon="8.4100493"><ele>131.0</ele><time>2026-04-06T09:58:43.368Z</time></trkpt><trkpt lat="45.3142711" lon="8.4102489"><ele>131.0</ele><time>2026-04-06T09:58:44.369Z</time></trkpt><trkpt lat="45.3142804" lon="8.4104508"><ele>131.0</ele><time>2026-04-06T09:58:45.37Z</time></trkpt><trkpt lat="45.3142922" lon="8.4106548"><ele>131.0</ele><time>2026-04-06T09:58:46.374Z</time></trkpt><trkpt lat="45.314307" lon="8.41086"><ele>131.0</ele><time>2026-04-06T09:58:47.373Z</time></trkpt><trkpt lat="45.3143201" lon="8.4110602"><ele>130.75</ele><time>2026-04-06T09:58:48.372Z</time></trkpt><trkpt lat="45.3143323" lon="8.4112558"><ele>130.5</ele><time>2026-04-06T09:58:49.369Z</time></trkpt><trkpt lat="45.3143453" lon="8.4114459"><ele>130.25</ele><time>2026-04-06T09:58:50.37Z</time></trkpt><trkpt lat="45.3143577" lon="8.4116435"><ele>130.0</ele><time>2026-04-06T09:58:51.374Z</time></trkpt><trkpt lat="45.3143743" lon="8.4118415"><ele>130.0</ele><time>2026-04-06T09:58:52.376Z</time></trkpt><trkpt lat="45.3143916" lon="8.4120432"><ele>130.0</ele><time>2026-04-06T09:58:53.375Z</time></trkpt><trkpt lat="45.3144062" lon="8.4122457"><ele>130.0</ele><time>2026-04-06T09:58:54.371Z</time></trkpt><trkpt lat="45.3144238" lon="8.4124565"><ele>130.0</ele><time>2026-04-06T09:58:55.371Z</time></trkpt><trkpt lat="45.3144372" lon="8.4126623"><ele>130.0</ele><time>2026-04-06T09:58:56.366Z</time></trkpt><trkpt lat="45.314453" lon="8.412872"><ele>130.0</ele><time>2026-04-06T09:58:57.373Z</time></trkpt><trkpt lat="45.3144663" lon="8.4130745"><ele>130.0</ele><time>2026-04-06T09:58:58.368Z</time></trkpt><trkpt lat="45.3144782" lon="8.4132688"><ele>130.0</ele><time>2026-04-06T09:58:59.368Z</time></trkpt><trkpt lat="45.3144879" lon="8.413449"><ele>130.0</ele><time>2026-04-06T09:59:00.369Z</time></trkpt><trkpt lat="45.3145046" lon="8.4136239"><ele>130.0</ele><time>2026-04-06T09:59:01.364Z</time></trkpt><trkpt lat="45.3145175" lon="8.4138022"><ele>130.0</ele><time>2026-04-06T09:59:02.365Z</time></trkpt><trkpt lat="45.3145312" lon="8.4139821"><ele>130.0</ele><time>2026-04-06T09:59:03.369Z</time></trkpt><trkpt lat="45.3145419" lon="8.414153"><ele>130.0</ele><time>2026-04-06T09:59:04.37Z</time></trkpt><trkpt lat="45.3145531" lon="8.4143162"><ele>130.0</ele><time>2026-04-06T09:59:05.366Z</time></trkpt><trkpt lat="45.3145645" lon="8.4144701"><ele>130.0</ele><time>2026-04-06T09:59:06.361Z</time></trkpt><trkpt lat="45.3145729" lon="8.4146157"><ele>130.0</ele><time>2026-04-06T09:59:07.37Z</time></trkpt><trkpt lat="45.3145818" lon="8.4147614"><ele>130.0</ele><time>2026-04-06T09:59:08.37Z</time></trkpt><trkpt lat="45.3145882" lon="8.4149038"><ele>129.75</ele><time>2026-04-06T09:59:09.364Z</time></trkpt><trkpt lat="45.3145951" lon="8.4150407"><ele>129.5</ele><time>2026-04-06T09:59:10.369Z</time></trkpt><trkpt lat="45.3146058" lon="8.4152012"><ele>129.25</ele><time>2026-04-06T09:59:11.37Z</time></trkpt><trkpt lat="45.3146185" lon="8.4153742"><ele>129.0</ele><time>2026-04-06T09:59:12.37Z</time></trkpt><trkpt lat="45.3146272" lon="8.4155475"><ele>129.0</ele><time>2026-04-06T09:59:13.37Z</time></trkpt><trkpt lat="45.3146384" lon="8.4157228"><ele>129.0</ele><time>2026-04-06T09:59:14.369Z</time></trkpt><trkpt lat="45.3146528" lon="8.4159084"><ele>129.0</ele><time>2026-04-06T09:59:15.373Z</time></trkpt><trkpt lat="45.3146661" lon="8.416096"><ele>129.0</ele><time>2026-04-06T09:59:16.368Z</time></trkpt><trkpt lat="45.3146806" lon="8.4163069"><ele>128.66666666666666</ele><time>2026-04-06T09:59:17.366Z</time></trkpt><trkpt lat="45.314697" lon="8.4165357"><ele>128.33333333333331</ele><time>2026-04-06T09:59:18.375Z</time></trkpt><trkpt lat="45.314707" lon="8.416755"><ele>128.0</ele><time>2026-04-06T09:59:19.371Z</time></trkpt><trkpt lat="45.3147198" lon="8.4169586"><ele>128.25</ele><time>2026-04-06T09:59:20.364Z</time></trkpt><trkpt lat="45.314733" lon="8.4171567"><ele>128.5</ele><time>2026-04-06T09:59:21.371Z</time></trkpt><trkpt lat="45.3147449" lon="8.4173542"><ele>128.75</ele><time>2026-04-06T09:59:22.373Z</time></trkpt><trkpt lat="45.3147574" lon="8.4175422"><ele>129.0</ele><time>2026-04-06T09:59:23.366Z</time></trkpt><trkpt lat="45.3147674" lon="8.4177233"><ele>129.75</ele><time>2026-04-06T09:59:24.368Z</time></trkpt><trkpt lat="45.3147816" lon="8.4178901"><ele>130.5</ele><time>2026-04-06T09:59:25.372Z</time></trkpt><trkpt lat="45.3147902" lon="8.4180655"><ele>131.25</ele><time>2026-04-06T09:59:26.368Z</time></trkpt><trkpt lat="45.3147942" lon="8.4182428"><ele>132.0</ele><time>2026-04-06T09:59:27.374Z</time></trkpt><trkpt lat="45.3147909" lon="8.4184306"><ele>132.25</ele><time>2026-04-06T09:59:28.369Z</time></trkpt><trkpt lat="45.3147741" lon="8.4186196"><ele>132.5</ele><time>2026-04-06T09:59:29.367Z</time></trkpt><trkpt lat="45.3147618" lon="8.4188202"><ele>132.75</ele><time>2026-04-06T09:59:30.367Z</time></trkpt><trkpt lat="45.3147615" lon="8.4190332"><ele>133.0</ele><time>2026-04-06T09:59:31.375Z</time></trkpt><trkpt lat="45.3147698" lon="8.4192559"><ele>133.0</ele><time>2026-04-06T09:59:32.37Z</time></trkpt><trkpt lat="45.3147812" lon="8.4194816"><ele>133.0</ele><time>2026-04-06T09:59:33.374Z</time></trkpt><trkpt lat="45.3147985" lon="8.4197151"><ele>133.0</ele><time>2026-04-06T09:59:34.37Z</time></trkpt><trkpt lat="45.3148316" lon="8.4199493"><ele>132.33333333333334</ele><time>2026-04-06T09:59:35.372Z</time></trkpt><trkpt lat="45.3148767" lon="8.4201676"><ele>131.66666666666666</ele><time>2026-04-06T09:59:36.364Z</time></trkpt><trkpt lat="45.3149226" lon="8.4203779"><ele>131.0</ele><time>2026-04-06T09:59:37.374Z</time></trkpt><trkpt lat="45.3149593" lon="8.4205934"><ele>130.33333333333331</ele><time>2026-04-06T09:59:38.367Z</time></trkpt><trkpt lat="45.3149856" lon="8.4208136"><ele>129.66666666666666</ele><time>2026-04-06T09:59:39.377Z</time></trkpt><trkpt lat="45.3150052" lon="8.4210343"><ele>129.0</ele><time>2026-04-06T09:59:40.367Z</time></trkpt><trkpt lat="45.3150138" lon="8.4212544"><ele>129.0</ele><time>2026-04-06T09:59:41.371Z</time></trkpt><trkpt lat="45.315021" lon="8.4214735"><ele>129.0</ele><time>2026-04-06T09:59:42.367Z</time></trkpt><trkpt lat="45.3150142" lon="8.4216958"><ele>129.0</ele><time>2026-04-06T09:59:43.369Z</time></trkpt><trkpt lat="45.314997" lon="8.4219216"><ele>129.0</ele><time>2026-04-06T09:59:44.369Z</time></trkpt><trkpt lat="45.3149705" lon="8.4221439"><ele>129.0</ele><time>2026-04-06T09:59:45.369Z</time></trkpt><trkpt lat="45.3149356" lon="8.4223543"><ele>129.0</ele><time>2026-04-06T09:59:46.368Z</time></trkpt><trkpt lat="45.3149046" lon="8.4225517"><ele>129.25</ele><time>2026-04-06T09:59:47.373Z</time></trkpt><trkpt lat="45.3148673" lon="8.422738"><ele>129.5</ele><time>2026-04-06T09:59:48.377Z</time></trkpt><trkpt lat="45.3148308" lon="8.4229065"><ele>129.75</ele><time>2026-04-06T09:59:49.366Z</time></trkpt><trkpt lat="45.3148009" lon="8.4230464"><ele>130.0</ele><time>2026-04-06T09:59:50.372Z</time></trkpt><trkpt lat="45.3147807" lon="8.4231665"><ele>130.0</ele><time>2026-04-06T09:59:51.375Z</time></trkpt><trkpt lat="45.314749" lon="8.4233014"><ele>130.0</ele><time>2026-04-06T09:59:53.368Z</time></trkpt><trkpt lat="45.3147346" lon="8.4234086"><ele>130.0</ele><time>2026-04-06T10:00:04.369Z</time></trkpt><trkpt lat="45.314736" lon="8.4235212"><ele>130.0</ele><time>2026-04-06T10:00:05.414Z</time></trkpt><trkpt lat="45.3147188" lon="8.4236357"><ele>130.0</ele><time>2026-04-06T10:00:06.367Z</time></trkpt><trkpt lat="45.3146977" lon="8.4237481"><ele>130.0</ele><time>2026-04-06T10:00:07.368Z</time></trkpt><trkpt lat="45.3146878" lon="8.4238476"><ele>129.8</ele><time>2026-04-06T10:00:08.369Z</time></trkpt><trkpt lat="45.3147007" lon="8.4239434"><ele>129.6</ele><time>2026-04-06T10:00:10.379Z</time></trkpt><trkpt lat="45.3147649" lon="8.4239749"><ele>129.4</ele><time>2026-04-06T10:00:12.366Z</time></trkpt><trkpt lat="45.3148539" lon="8.4239923"><ele>129.2</ele><time>2026-04-06T10:00:13.367Z</time></trkpt><trkpt lat="45.31498" lon="8.424019"><ele>129.0</ele><time>2026-04-06T10:00:14.369Z</time></trkpt><trkpt lat="45.3151564" lon="8.4240664"><ele>130.0</ele><time>2026-04-06T10:00:15.376Z</time></trkpt><trkpt lat="45.3153432" lon="8.4241441"><ele>131.0</ele><time>2026-04-06T10:00:16.367Z</time></trkpt><trkpt lat="45.315503" lon="8.4242169"><ele>132.0</ele><time>2026-04-06T10:00:17.366Z</time></trkpt><trkpt lat="45.3156413" lon="8.4242682"><ele>132.16666666666666</ele><time>2026-04-06T10:00:18.366Z</time></trkpt><trkpt lat="45.3157488" lon="8.4243093"><ele>132.33333333333334</ele><time>2026-04-06T10:00:19.362Z</time></trkpt><trkpt lat="45.3158164" lon="8.4243564"><ele>132.5</ele><time>2026-04-06T10:00:20.363Z</time></trkpt><trkpt lat="45.315872" lon="8.4244021"><ele>132.66666666666669</ele><time>2026-04-06T10:00:21.376Z</time></trkpt><trkpt lat="45.3158661" lon="8.4245284"><ele>132.83333333333334</ele><time>2026-04-06T10:00:23.372Z</time></trkpt><trkpt lat="45.3158492" lon="8.4246566"><ele>133.0</ele><time>2026-04-06T10:00:25.36Z</time></trkpt><trkpt lat="45.315832" lon="8.4247512"><ele>133.0</ele><time>2026-04-06T10:00:27.371Z</time></trkpt><trkpt lat="45.3157936" lon="8.424898"><ele>133.0</ele><time>2026-04-06T10:00:29.364Z</time></trkpt><trkpt lat="45.3157685" lon="8.4250001"><ele>133.0</ele><time>2026-04-06T10:00:30.37Z</time></trkpt><trkpt lat="45.3157493" lon="8.4250978"><ele>133.0</ele><time>2026-04-06T10:00:31.374Z</time></trkpt><trkpt lat="45.3157095" lon="8.4252146"><ele>133.0</ele><time>2026-04-06T10:00:33.368Z</time></trkpt><trkpt lat="45.3156483" lon="8.4252543"><ele>133.0</ele><time>2026-04-06T10:00:35.366Z</time></trkpt><trkpt lat="45.3155059" lon="8.4251789"><ele>132.6</ele><time>2026-04-06T10:00:37.361Z</time></trkpt><trkpt lat="45.3154034" lon="8.4251323"><ele>132.20000000000002</ele><time>2026-04-06T10:00:38.366Z</time></trkpt><trkpt lat="45.3153091" lon="8.4251037"><ele>131.8</ele><time>2026-04-06T10:00:39.363Z</time></trkpt><trkpt lat="45.3152359" lon="8.4250694"><ele>131.4</ele><time>2026-04-06T10:00:40.372Z</time></trkpt><trkpt lat="45.3151671" lon="8.425055"><ele>131.0</ele><time>2026-04-06T10:00:41.384Z</time></trkpt><trkpt lat="45.3150574" lon="8.4250235"><ele>131.0</ele><time>2026-04-06T10:00:43.372Z</time></trkpt><trkpt lat="45.3150048" lon="8.4249713"><ele>131.0</ele><time>2026-04-06T10:00:45.367Z</time></trkpt><trkpt lat="45.3150034" lon="8.4248308"><ele>131.0</ele><time>2026-04-06T10:02:23.37Z</time></trkpt><trkpt lat="45.3150321" lon="8.4246959"><ele>131.0</ele><time>2026-04-06T10:02:25.369Z</time></trkpt><trkpt lat="45.3150892" lon="8.4246493"><ele>131.0</ele><time>2026-04-06T10:02:27.366Z</time></trkpt><trkpt lat="45.3151693" lon="8.4246564"><ele>131.0</ele><time>2026-04-06T10:02:29.363Z</time></trkpt><trkpt lat="45.3152402" lon="8.4246868"><ele>131.0</ele><time>2026-04-06T10:02:31.374Z</time></trkpt><trkpt lat="45.3153129" lon="8.4247138"><ele>131.0</ele><time>2026-04-06T10:03:18.37Z</time></trkpt><trkpt lat="45.3153455" lon="8.4248002"><ele>131.0</ele><time>2026-04-06T10:03:26.363Z</time></trkpt><trkpt lat="45.3153136" lon="8.4248928"><ele>131.0</ele><time>2026-04-06T10:03:31.37Z</time></trkpt><trkpt lat="45.3152448" lon="8.4249308"><ele>131.0</ele><time>2026-04-06T10:03:36.369Z</time></trkpt><trkpt lat="45.3152295" lon="8.4250238"><ele>131.0</ele><time>2026-04-06T10:04:15.358Z</time></trkpt><trkpt lat="45.3152636" lon="8.4251085"><ele>131.0</ele><time>2026-04-06T10:04:20.355Z</time></trkpt><trkpt lat="45.3153299" lon="8.4251641"><ele>131.0</ele><time>2026-04-06T10:04:22.373Z</time></trkpt><trkpt lat="45.3153999" lon="8.4253115"><ele>131.0</ele><time>2026-04-06T10:04:24.357Z</time></trkpt><trkpt lat="45.3155478" lon="8.4255516"><ele>131.0</ele><time>2026-04-06T10:04:26.359Z</time></trkpt><trkpt lat="45.3156462" lon="8.4256787"><ele>131.0</ele><time>2026-04-06T10:04:27.357Z</time></trkpt><trkpt lat="45.3157466" lon="8.4257916"><ele>131.0</ele><time>2026-04-06T10:04:28.358Z</time></trkpt><trkpt lat="45.3158517" lon="8.4258983"><ele>131.0</ele><time>2026-04-06T10:04:29.358Z</time></trkpt><trkpt lat="45.3159596" lon="8.4260018"><ele>131.0</ele><time>2026-04-06T10:04:30.355Z</time></trkpt><trkpt lat="45.3160678" lon="8.4261005"><ele>131.0</ele><time>2026-04-06T10:04:31.359Z</time></trkpt><trkpt lat="45.3161667" lon="8.4261946"><ele>131.0</ele><time>2026-04-06T10:04:32.358Z</time></trkpt><trkpt lat="45.3162484" lon="8.4262804"><ele>131.0</ele><time>2026-04-06T10:04:33.368Z</time></trkpt><trkpt lat="45.3163148" lon="8.4263551"><ele>131.0</ele><time>2026-04-06T10:04:34.36Z</time></trkpt><trkpt lat="45.3163716" lon="8.4264224"><ele>131.0</ele><time>2026-04-06T10:04:35.364Z</time></trkpt><trkpt lat="45.3164205" lon="8.4265031"><ele>131.0</ele><time>2026-04-06T10:04:37.362Z</time></trkpt><trkpt lat="45.316316" lon="8.4264494"><ele>131.0</ele><time>2026-04-06T10:04:41.449Z</time></trkpt><trkpt lat="45.3161937" lon="8.4262863"><ele>131.0</ele><time>2026-04-06T10:04:43.027Z</time></trkpt><trkpt lat="45.3160902" lon="8.4261435"><ele>131.0</ele><time>2026-04-06T10:04:43.948Z</time></trkpt><trkpt lat="45.3160021" lon="8.4260263"><ele>131.0</ele><time>2026-04-06T10:04:44.97Z</time></trkpt><trkpt lat="45.3159251" lon="8.4259164"><ele>131.0</ele><time>2026-04-06T10:04:45.956Z</time></trkpt><trkpt lat="45.3158641" lon="8.4258317"><ele>131.0</ele><time>2026-04-06T10:04:46.94Z</time></trkpt><trkpt lat="45.3157994" lon="8.4257414"><ele>131.0</ele><time>2026-04-06T10:04:48.953Z</time></trkpt><trkpt lat="45.3157399" lon="8.4256501"><ele>131.0</ele><time>2026-04-06T10:04:50.944Z</time></trkpt><trkpt lat="45.315677" lon="8.4255365"><ele>131.0</ele><time>2026-04-06T10:04:52.968Z</time></trkpt><trkpt lat="45.3156152" lon="8.4254419"><ele>131.0</ele><time>2026-04-06T10:04:54.946Z</time></trkpt><trkpt lat="45.3155459" lon="8.4253325"><ele>131.0</ele><time>2026-04-06T10:04:57.948Z</time></trkpt><trkpt lat="45.3154847" lon="8.4252115"><ele>131.0</ele><time>2026-04-06T10:05:00.946Z</time></trkpt><trkpt lat="45.3154287" lon="8.4251305"><ele>131.0</ele><time>2026-04-06T10:05:25.947Z</time></trkpt><trkpt lat="45.3153584" lon="8.4250736"><ele>131.0</ele><time>2026-04-06T10:05:49.955Z</time></trkpt><trkpt lat="45.3153108" lon="8.4250106"><ele>131.0</ele><time>2026-04-06T10:11:33.953Z</time></trkpt></trkseg></trk></gpx>